createdAt,value
2019-05-30T00:01:10.694Z,97336.82
2019-05-30T00:03:40.899Z,97338.72
2019-05-30T00:06:11.231Z,97334.17
2019-05-30T00:08:41.376Z,97335.42
2019-05-30T00:11:11.576Z,97332.64
2019-05-30T00:13:41.884Z,97329.02
2019-05-30T00:16:11.980Z,97336.12
2019-05-30T00:18:42.210Z,97329.30
2019-05-30T00:21:12.241Z,97333.91
2019-05-30T00:23:42.265Z,97330.69
2019-05-30T00:26:12.540Z,97330.00
2019-05-30T00:28:42.598Z,97329.97
2019-05-30T00:31:12.911Z,97327.52
2019-05-30T00:33:42.970Z,97329.25
2019-05-30T00:36:13.257Z,97334.70
2019-05-30T00:38:43.295Z,97334.66
2019-05-30T00:41:13.654Z,97335.91
2019-05-30T00:43:43.819Z,97333.45
2019-05-30T00:46:13.914Z,97341.67
2019-05-30T00:48:43.866Z,97341.80
2019-05-30T00:51:13.903Z,97345.16
2019-05-30T00:53:44.011Z,97340.11
2019-05-30T00:56:14.240Z,97335.56
2019-05-30T00:58:44.307Z,97332.81
2019-05-30T01:01:14.324Z,97343.45
2019-05-30T01:03:44.413Z,97339.23
2019-05-30T01:06:14.891Z,97339.06
2019-05-30T01:08:45.179Z,97332.09
2019-05-30T01:11:15.246Z,97338.55
2019-05-30T01:13:45.675Z,97332.45
2019-05-30T01:16:16.099Z,97327.26
2019-05-30T01:18:46.290Z,97332.73
2019-05-30T01:21:16.820Z,97328.83
2019-05-30T01:23:46.846Z,97334.11
2019-05-30T01:26:17.013Z,97330.84
2019-05-30T01:28:47.187Z,97331.81
2019-05-30T01:31:17.367Z,97326.66
2019-05-30T01:33:47.385Z,97329.88
2019-05-30T01:36:17.495Z,97330.97
2019-05-30T01:38:47.548Z,97325.97
2019-05-30T01:41:17.915Z,97321.13
2019-05-30T01:43:48.301Z,97316.41
2019-05-30T01:46:18.690Z,97322.70
2019-05-30T01:48:48.768Z,97315.37
2019-05-30T01:51:18.759Z,97311.34
2019-05-30T01:53:48.754Z,97313.55
2019-05-30T01:56:19.123Z,97312.43
2019-05-30T01:58:49.464Z,97313.35
2019-05-30T02:01:25.102Z,97313.52
2019-05-30T02:03:51.271Z,97311.55
2019-05-30T02:06:21.538Z,97308.92
2019-05-30T02:08:51.613Z,97314.41
2019-05-30T02:11:21.683Z,97311.46
2019-05-30T02:13:51.798Z,97312.23
2019-05-30T02:16:22.152Z,97312.16
2019-05-30T02:18:52.267Z,97316.27
2019-05-30T02:21:22.490Z,97313.39
2019-05-30T02:23:52.836Z,97315.17
2019-05-30T02:26:23.127Z,97313.20
2019-05-30T02:28:53.056Z,97318.83
2019-05-30T02:31:38.446Z,97323.14
2019-05-30T02:33:54.917Z,97318.59
2019-05-30T02:36:24.946Z,97318.55
2019-05-30T02:38:54.971Z,97319.52
2019-05-30T02:41:25.007Z,97322.02
2019-05-30T02:43:54.958Z,97323.30
2019-05-30T02:46:24.966Z,97326.69
2019-05-30T02:48:59.291Z,97321.86
2019-05-30T02:51:26.834Z,97325.08
2019-05-30T02:53:57.020Z,97325.20
2019-05-30T02:56:27.140Z,97325.00
2019-05-30T02:58:57.517Z,97327.57
2019-05-30T03:01:27.787Z,97337.89
2019-05-30T03:03:58.314Z,97332.56
2019-05-30T03:06:28.563Z,97334.34
2019-05-30T03:08:58.799Z,97331.92
2019-05-30T03:11:29.430Z,97332.24
2019-05-30T03:13:59.545Z,97331.59
2019-05-30T03:16:29.690Z,97333.98
2019-05-30T03:18:59.914Z,97328.50
2019-05-30T03:21:29.998Z,97337.52
2019-05-30T03:24:00.334Z,97338.77
2019-05-30T03:26:30.784Z,97338.09
2019-05-30T03:29:02.743Z,97340.78
2019-05-30T03:31:36.740Z,97343.16
2019-05-30T03:34:16.445Z,97342.58
2019-05-30T03:36:39.019Z,97342.69
2019-05-30T03:39:10.793Z,97340.14
2019-05-30T03:41:40.898Z,97349.99
2019-05-30T03:44:13.920Z,97347.31
2019-05-30T03:46:50.497Z,97355.56
2019-05-30T03:49:26.077Z,97359.00
2019-05-30T03:51:59.161Z,97361.70
2019-05-30T03:54:30.040Z,97357.99
2019-05-30T03:57:11.112Z,97359.28
2019-05-30T03:59:51.317Z,97362.34
2019-05-30T04:02:58.092Z,97362.38
2019-05-30T04:05:35.375Z,97367.02
2019-05-30T04:08:11.888Z,97368.35
2019-05-30T04:10:45.747Z,97367.55
2019-05-30T04:13:41.241Z,97383.38
2019-05-30T04:16:13.345Z,97386.59
2019-05-30T04:18:43.208Z,97379.45
2019-05-30T04:21:15.885Z,97386.63
2019-05-30T04:23:45.186Z,97380.07
2019-05-30T04:26:15.937Z,97386.56
2019-05-30T04:28:46.255Z,97389.26
2019-05-30T04:31:17.208Z,97386.95
2019-05-30T04:33:48.139Z,97387.39
2019-05-30T04:36:19.094Z,97395.00
2019-05-30T04:38:50.226Z,97388.13
2019-05-30T04:41:21.010Z,97393.05
2019-05-30T04:43:51.589Z,97399.09
2019-05-30T04:46:22.112Z,97398.72
2019-05-30T04:48:52.425Z,97402.55
2019-05-30T04:51:22.578Z,97400.13
2019-05-30T04:53:52.764Z,97399.25
2019-05-30T04:56:22.776Z,97401.95
2019-05-30T04:58:53.109Z,97403.02
2019-05-30T05:01:23.189Z,97397.67
2019-05-30T05:03:53.149Z,97392.36
2019-05-30T05:06:23.466Z,97398.29
2019-05-30T05:08:53.495Z,97402.89
2019-05-30T05:11:25.264Z,97408.14
2019-05-30T05:13:55.828Z,97406.72
2019-05-30T05:16:34.933Z,97410.47
2019-05-30T05:18:57.567Z,97409.25
2019-05-30T05:21:27.571Z,97409.95
2019-05-30T05:23:57.606Z,97403.08
2019-05-30T05:26:28.051Z,97409.13
2019-05-30T05:28:58.420Z,97410.14
2019-05-30T05:31:28.440Z,97413.12
2019-05-30T05:33:59.378Z,97417.39
2019-05-30T05:36:29.419Z,97415.86
2019-05-30T05:38:59.606Z,97412.67
2019-05-30T05:41:29.546Z,97420.47
2019-05-30T05:43:59.755Z,97420.73
2019-05-30T05:46:29.789Z,97424.79
2019-05-30T05:48:59.996Z,97422.05
2019-05-30T05:51:30.211Z,97423.47
2019-05-30T05:54:00.620Z,97427.31
2019-05-30T05:56:30.642Z,97431.50
2019-05-30T05:59:00.845Z,97430.48
2019-05-30T06:01:31.027Z,97436.98
2019-05-30T06:04:12.489Z,97437.46
2019-05-30T06:06:33.152Z,97433.07
2019-05-30T06:09:04.712Z,97434.31
2019-05-30T06:11:34.743Z,97437.33
2019-05-30T06:14:04.955Z,97433.41
2019-05-30T06:16:35.025Z,97434.22
2019-05-30T06:19:06.641Z,97441.27
2019-05-30T06:21:36.638Z,97436.16
2019-05-30T06:24:07.018Z,97438.63
2019-05-30T06:26:37.117Z,97438.20
2019-05-30T06:29:07.350Z,97439.52
2019-05-30T06:31:37.416Z,97439.27
2019-05-30T06:34:07.557Z,97438.98
2019-05-30T06:36:37.624Z,97440.47
2019-05-30T06:39:09.223Z,97441.33
2019-05-30T06:41:39.290Z,97443.27
2019-05-30T06:44:09.275Z,97443.28
2019-05-30T06:46:39.501Z,97443.00
2019-05-30T06:49:09.862Z,97441.02
2019-05-30T06:51:40.037Z,97442.92
2019-05-30T06:54:10.322Z,97447.07
2019-05-30T06:56:40.353Z,97448.54
2019-05-30T06:59:10.385Z,97443.38
2019-05-30T07:01:40.490Z,97444.07
2019-05-30T07:04:10.840Z,97445.29
2019-05-30T07:06:41.487Z,97449.05
2019-05-30T07:09:11.868Z,97453.89
2019-05-30T07:11:41.845Z,97450.00
2019-05-30T07:14:11.938Z,97450.86
2019-05-30T07:16:41.911Z,97456.26
2019-05-30T07:19:12.125Z,97455.22
2019-05-30T07:21:42.221Z,97459.17
2019-05-30T07:24:12.438Z,97461.13
2019-05-30T07:26:42.379Z,97462.44
2019-05-30T07:29:12.593Z,97453.73
2019-05-30T07:31:42.721Z,97461.09
2019-05-30T07:34:12.743Z,97460.17
2019-05-30T07:36:42.767Z,97462.03
2019-05-30T07:39:15.760Z,97467.31
2019-05-30T07:41:45.865Z,97465.41
2019-05-30T07:44:15.994Z,97468.75
2019-05-30T07:46:46.082Z,97472.09
2019-05-30T07:49:16.041Z,97471.80
2019-05-30T07:51:46.089Z,97474.19
2019-05-30T07:54:16.422Z,97473.13
2019-05-30T07:56:46.429Z,97476.52
2019-05-30T07:59:16.465Z,97480.98
2019-05-30T08:01:46.428Z,97480.03
2019-05-30T08:04:16.536Z,97480.59
2019-05-30T08:06:46.650Z,97483.27
2019-05-30T08:09:16.740Z,97479.19
2019-05-30T08:11:47.004Z,97479.13
2019-05-30T08:14:16.953Z,97478.08
2019-05-30T08:16:49.345Z,97471.09
2019-05-30T08:19:18.795Z,97474.16
2019-05-30T08:21:48.926Z,97471.09
2019-05-30T08:24:19.116Z,97465.99
2019-05-30T08:26:49.184Z,97468.94
2019-05-30T08:29:19.139Z,97466.11
2019-05-30T08:31:49.075Z,97464.39
2019-05-30T08:34:19.255Z,97458.95
2019-05-30T08:36:49.363Z,97458.45
2019-05-30T08:39:19.548Z,97455.87
2019-05-30T08:41:49.652Z,97460.09
2019-05-30T08:44:19.718Z,97452.06
2019-05-30T08:46:50.351Z,97450.96
2019-05-30T08:49:20.631Z,97450.36
2019-05-30T08:51:50.824Z,97443.57
2019-05-30T08:54:20.967Z,97443.13
2019-05-30T08:56:51.093Z,97447.84
2019-05-30T08:59:21.145Z,97445.31
2019-05-30T09:01:53.178Z,97445.27
2019-05-30T09:04:23.059Z,97448.20
2019-05-30T09:06:53.655Z,97449.45
2019-05-30T09:09:23.849Z,97448.61
2019-05-30T09:11:53.812Z,97448.21
2019-05-30T09:14:23.941Z,97440.45
2019-05-30T09:16:55.045Z,97441.45
2019-05-30T09:19:25.259Z,97433.33
2019-05-30T09:21:55.377Z,97436.50
2019-05-30T09:24:25.601Z,97431.41
2019-05-30T09:26:55.730Z,97430.73
2019-05-30T09:29:25.771Z,97431.17
2019-05-30T09:31:56.020Z,97430.30
2019-05-30T09:34:26.214Z,97433.60
2019-05-30T09:36:56.285Z,97430.53
2019-05-30T09:39:29.616Z,97421.77
2019-05-30T09:41:58.426Z,97419.31
2019-05-30T09:44:28.598Z,97419.66
2019-05-30T09:46:58.710Z,97416.23
2019-05-30T09:49:28.814Z,97419.70
2019-05-30T09:51:59.072Z,97422.37
2019-05-30T09:54:29.190Z,97423.03
2019-05-30T09:56:59.571Z,97428.11
2019-05-30T09:59:29.587Z,97430.94
2019-05-30T10:01:59.656Z,97427.92
2019-05-30T10:04:29.927Z,97424.13
2019-05-30T10:07:00.047Z,97417.73
2019-05-30T10:09:47.143Z,97418.84
2019-05-30T10:12:17.348Z,97425.05
2019-05-30T10:14:48.651Z,97420.91
2019-05-30T10:17:19.099Z,97424.27
2019-05-30T10:19:49.172Z,97431.21
2019-05-30T10:22:19.683Z,97426.97
2019-05-30T10:24:51.214Z,97422.30
2019-05-30T10:27:21.390Z,97423.06
2019-05-30T10:29:51.648Z,97420.38
2019-05-30T10:32:22.025Z,97412.55
2019-05-30T10:34:52.377Z,97414.50
2019-05-30T10:37:23.205Z,97414.23
2019-05-30T10:39:58.722Z,97414.20
2019-05-30T10:42:25.439Z,97404.50
2019-05-30T10:44:56.477Z,97403.83
2019-05-30T10:47:26.982Z,97405.41
2019-05-30T10:49:57.770Z,97400.47
2019-05-30T10:52:28.410Z,97403.73
2019-05-30T10:54:58.617Z,97400.59
2019-05-30T10:57:28.903Z,97400.42
2019-05-30T10:59:59.186Z,97404.08
2019-05-30T11:02:29.591Z,97397.56
2019-05-30T11:04:59.883Z,97396.15
2019-05-30T11:08:00.265Z,97389.98
2019-05-30T11:10:36.034Z,97393.09
2019-05-30T11:13:07.759Z,97388.94
2019-05-30T11:15:38.314Z,97384.47
2019-05-30T11:18:08.777Z,97380.75
2019-05-30T11:20:39.307Z,97376.78
2019-05-30T11:23:09.532Z,97373.66
2019-05-30T11:25:39.768Z,97369.83
2019-05-30T11:28:10.030Z,97368.97
2019-05-30T11:30:40.051Z,97368.61
2019-05-30T11:33:10.322Z,97368.47
2019-05-30T11:35:40.492Z,97373.32
2019-05-30T11:38:10.677Z,97363.59
2019-05-30T11:40:41.174Z,97358.44
2019-05-30T11:43:11.207Z,97355.66
2019-05-30T11:45:41.430Z,97353.32
2019-05-30T11:48:11.924Z,97346.53
2019-05-30T11:50:41.955Z,97354.73
2019-05-30T11:53:12.101Z,97362.66
2019-05-30T11:55:42.098Z,97361.30
2019-05-30T11:58:12.379Z,97370.36
2019-05-30T12:00:42.593Z,97366.31
2019-05-30T12:03:12.741Z,97363.47
2019-05-30T12:05:42.912Z,97363.42
2019-05-30T12:08:13.000Z,97356.64
2019-05-30T12:10:43.118Z,97356.54
2019-05-30T12:13:13.161Z,97358.27
2019-05-30T12:15:43.346Z,97359.61
2019-05-30T12:18:13.657Z,97355.44
2019-05-30T12:20:44.030Z,97349.34
2019-05-30T12:23:14.176Z,97349.77
2019-05-30T12:25:44.355Z,97344.42
2019-05-30T12:28:14.399Z,97345.42
2019-05-30T12:30:55.969Z,97341.64
2019-05-30T12:33:16.594Z,97344.19
2019-05-30T12:35:47.048Z,97339.39
2019-05-30T12:38:18.401Z,97338.09
2019-05-30T12:40:48.576Z,97333.94
2019-05-30T12:43:18.673Z,97341.66
2019-05-30T12:45:49.192Z,97331.20
2019-05-30T12:48:19.708Z,97330.21
2019-05-30T12:50:49.729Z,97332.73
2019-05-30T12:53:19.907Z,97326.34
2019-05-30T12:55:52.522Z,97332.32
2019-05-30T12:58:25.121Z,97331.60
2019-05-30T13:00:55.227Z,97336.55
2019-05-30T13:03:25.204Z,97339.08
2019-05-30T13:05:55.411Z,97340.27
2019-05-30T13:08:25.783Z,97343.76
2019-05-30T13:10:55.839Z,97343.38
2019-05-30T13:13:26.167Z,97344.98
2019-05-30T13:15:56.643Z,97345.42
2019-05-30T13:18:26.869Z,97341.36
2019-05-30T13:20:57.982Z,97340.98
2019-05-30T13:23:28.099Z,97344.14
2019-05-30T13:25:59.496Z,97349.77
2019-05-30T13:28:29.800Z,97345.23
2019-05-30T13:31:00.299Z,97346.55
2019-05-30T13:33:31.005Z,97352.56
2019-05-30T13:36:01.165Z,97348.28
2019-05-30T13:38:31.847Z,97353.26
2019-05-30T13:41:03.546Z,97350.59
2019-05-30T13:43:33.697Z,97351.38
2019-05-30T13:46:04.529Z,97352.42
2019-05-30T13:48:35.186Z,97355.81
2019-05-30T13:51:05.548Z,97358.48
2019-05-30T13:53:35.871Z,97357.13
2019-05-30T13:56:06.254Z,97356.89
2019-05-30T13:58:36.411Z,97357.31
2019-05-30T14:01:10.490Z,97358.89
2019-05-30T14:03:38.840Z,97354.40
2019-05-30T14:06:11.153Z,97352.95
2019-05-30T14:08:42.032Z,97350.25
2019-05-30T14:11:12.505Z,97350.83
2019-05-30T14:13:42.559Z,97349.47
2019-05-30T14:16:13.002Z,97350.41
2019-05-30T14:18:43.207Z,97354.10
2019-05-30T14:21:13.690Z,97355.41
2019-05-30T14:23:44.144Z,97351.80
2019-05-30T14:26:14.321Z,97350.09
2019-05-30T14:28:44.314Z,97354.16
2019-05-30T14:31:14.361Z,97363.94
2019-05-30T14:33:44.594Z,97365.52
2019-05-30T14:36:15.059Z,97361.17
2019-05-30T14:38:57.641Z,97361.06
2019-05-30T14:41:16.786Z,97358.30
2019-05-30T14:43:46.775Z,97358.19
2019-05-30T14:46:16.818Z,97362.45
2019-05-30T14:48:46.905Z,97368.69
2019-05-30T14:51:17.191Z,97365.77
2019-05-30T14:53:47.384Z,97362.00
2019-05-30T14:56:17.686Z,97359.70
2019-05-30T14:58:47.863Z,97360.03
2019-05-30T15:01:17.943Z,97367.77
2019-05-30T15:03:48.206Z,97361.55
2019-05-30T15:06:18.266Z,97369.41
2019-05-30T15:08:48.434Z,97366.63
2019-05-30T15:11:18.550Z,97363.61
2019-05-30T15:13:48.608Z,97364.09
2019-05-30T15:16:18.733Z,97361.86
2019-05-30T15:18:48.672Z,97357.33
2019-05-30T15:21:18.996Z,97361.30
2019-05-30T15:23:49.005Z,97361.16
2019-05-30T15:26:19.311Z,97359.02
2019-05-30T15:28:49.557Z,97362.59
2019-05-30T15:31:19.539Z,97360.77
2019-05-30T15:33:49.589Z,97362.73
2019-05-30T15:36:19.719Z,97363.23
2019-05-30T15:38:49.645Z,97363.11
2019-05-30T15:41:19.655Z,97362.45
2019-05-30T15:43:49.931Z,97363.96
2019-05-30T15:46:20.072Z,97362.67
2019-05-30T15:48:50.163Z,97367.75
2019-05-30T15:51:20.176Z,97366.30
2019-05-30T15:53:50.098Z,97368.92
2019-05-30T15:56:20.015Z,97372.20
2019-05-30T15:58:50.198Z,97366.46
2019-05-30T16:01:20.227Z,97368.08
2019-05-30T16:03:50.237Z,97372.98
2019-05-30T16:06:20.820Z,97374.13
2019-05-30T16:08:50.871Z,97366.42
2019-05-30T16:11:21.294Z,97366.75
2019-05-30T16:13:51.345Z,97372.81
2019-05-30T16:16:33.791Z,97373.47
2019-05-30T16:18:53.058Z,97369.91
2019-05-30T16:21:23.201Z,97370.61
2019-05-30T16:23:53.119Z,97375.52
2019-05-30T16:26:23.333Z,97375.02
2019-05-30T16:28:53.453Z,97366.19
2019-05-30T16:31:23.470Z,97361.64
2019-05-30T16:33:53.513Z,97365.03
2019-05-30T16:36:23.700Z,97364.05
2019-05-30T16:38:53.725Z,97363.55
2019-05-30T16:41:23.717Z,97357.65
2019-05-30T16:43:53.720Z,97360.78
2019-05-30T16:46:23.781Z,97357.66
2019-05-30T16:48:53.776Z,97350.95
2019-05-30T16:51:23.904Z,97355.83
2019-05-30T16:53:54.011Z,97355.48
2019-05-30T16:56:23.924Z,97354.83
2019-05-30T16:59:01.359Z,97351.03
2019-05-30T17:01:31.357Z,97349.73
2019-05-30T17:04:01.374Z,97354.68
2019-05-30T17:06:31.302Z,97353.20
2019-05-30T17:09:01.293Z,97357.18
2019-05-30T17:11:31.304Z,97364.53
2019-05-30T17:14:01.342Z,97368.81
2019-05-30T17:16:31.342Z,97367.38
2019-05-30T17:19:01.332Z,97366.41
2019-05-30T17:21:31.302Z,97364.56
2019-05-30T17:24:47.501Z,97370.38
2019-05-30T17:27:03.434Z,97367.09
2019-05-30T17:29:33.438Z,97370.94
2019-05-30T17:32:06.626Z,97370.39
2019-05-30T17:34:36.620Z,97371.80
2019-05-30T17:37:06.726Z,97373.47
2019-05-30T17:39:36.651Z,97377.83
2019-05-30T17:42:06.756Z,97378.83
2019-05-30T17:44:36.765Z,97378.39
2019-05-30T17:47:06.705Z,97382.88
2019-05-30T17:49:36.797Z,97379.28
2019-05-30T17:52:07.050Z,97385.89
2019-05-30T17:54:37.112Z,97387.88
2019-05-30T17:57:07.101Z,97388.12
2019-05-30T17:59:37.034Z,97393.09
2019-05-30T18:02:08.232Z,97395.29
2019-05-30T18:04:38.510Z,97389.28
2019-05-30T18:07:08.779Z,97388.19
2019-05-30T18:09:38.898Z,97387.73
2019-05-30T18:12:09.120Z,97383.83
2019-05-30T18:14:39.191Z,97381.44
2019-05-30T18:17:09.586Z,97388.50
2019-05-30T18:19:39.957Z,97386.56
2019-05-30T18:22:10.129Z,97388.09
2019-05-30T18:24:40.178Z,97389.78
2019-05-30T18:27:10.344Z,97391.95
2019-05-30T18:29:40.297Z,97392.98
2019-05-30T18:32:10.481Z,97398.14
2019-05-30T18:34:40.725Z,97401.80
2019-05-30T18:37:11.156Z,97407.92
2019-05-30T18:39:41.261Z,97403.14
2019-05-30T18:42:11.479Z,97406.79
2019-05-30T18:44:41.654Z,97412.24
2019-05-30T18:47:12.006Z,97407.89
2019-05-30T18:49:42.339Z,97409.73
2019-05-30T18:52:12.602Z,97417.80
2019-05-30T18:54:43.014Z,97418.13
2019-05-30T18:57:13.163Z,97422.92
2019-05-30T18:59:43.093Z,97422.66
2019-05-30T19:02:13.149Z,97417.63
2019-05-30T19:17:01.885Z,97426.77
2019-05-30T19:19:38.498Z,97429.36
2019-05-30T19:22:20.870Z,97430.48
2019-05-30T19:25:01.464Z,97433.63
2019-05-30T19:31:15.102Z,97444.12
2019-05-30T19:33:09.795Z,97449.53
2019-05-30T19:36:20.504Z,97447.91
2019-05-30T19:38:37.591Z,97451.88
2019-05-30T19:41:12.141Z,97454.16
2019-05-30T19:44:03.504Z,97455.30
2019-05-30T19:46:40.739Z,97454.67
2019-05-30T19:49:38.627Z,97460.38
2019-05-30T19:53:13.352Z,97460.27
2019-05-30T19:55:06.483Z,97461.58
2019-05-30T19:58:18.454Z,97468.45
2019-05-30T20:04:18.367Z,97466.66
2019-05-30T20:07:52.787Z,97463.42
2019-05-30T20:13:37.283Z,97474.28
2019-05-30T20:16:47.491Z,97473.30
2019-05-30T20:18:56.931Z,97472.53
2019-05-30T20:21:51.798Z,97474.34
2019-05-30T20:27:06.378Z,97469.48
2019-05-30T20:30:00.386Z,97473.58
2019-05-30T20:32:47.224Z,97481.56
2019-05-30T20:35:49.764Z,97481.42
2019-05-30T20:38:24.733Z,97476.56
2019-05-30T20:41:02.911Z,97475.44
2019-05-30T20:43:49.525Z,97477.56
2019-05-30T20:46:23.699Z,97477.23
2019-05-30T20:54:56.849Z,97479.78
2019-05-30T20:57:26.982Z,97481.75
2019-05-30T20:59:57.104Z,97480.12
2019-05-30T21:02:29.474Z,97479.17
2019-05-30T21:04:59.168Z,97483.77
2019-05-30T21:07:30.349Z,97484.11
2019-05-30T21:10:01.222Z,97482.02
2019-05-30T21:12:39.412Z,97484.49
2019-05-30T21:15:07.276Z,97487.47
2019-05-30T21:17:38.084Z,97490.09
2019-05-30T21:20:11.347Z,97497.28
2019-05-30T21:22:40.850Z,97494.86
2019-05-30T21:25:11.945Z,97494.23
2019-05-30T21:27:43.060Z,97501.91
2019-05-30T21:30:13.897Z,97497.83
2019-05-30T21:32:45.037Z,97498.48
2019-05-30T21:35:16.236Z,97500.27
2019-05-30T21:37:46.415Z,97498.67
2019-05-30T21:40:16.980Z,97497.70
2019-05-30T21:43:01.395Z,97504.73
2019-05-30T21:45:19.195Z,97500.16
2019-05-30T21:47:49.226Z,97500.98
2019-05-30T21:50:19.818Z,97494.29
2019-05-30T21:52:49.897Z,97499.36
2019-05-30T21:55:20.180Z,97497.41
2019-05-30T21:57:50.308Z,97491.55
2019-05-30T22:00:51.645Z,97489.12
2019-05-30T22:03:21.862Z,97494.39
2019-05-30T22:05:52.176Z,97490.78
2019-05-30T22:08:22.269Z,97495.70
2019-05-30T22:10:52.213Z,97495.20
2019-05-30T22:13:22.430Z,97497.66
2019-05-30T22:15:52.915Z,97498.77
2019-05-30T22:18:23.145Z,97495.52
2019-05-30T22:20:53.280Z,97495.67
2019-05-30T22:23:23.260Z,97502.72
2019-05-30T22:25:53.295Z,97497.31
2019-05-30T22:28:23.243Z,97498.78
2019-05-30T22:30:53.263Z,97497.63
2019-05-30T22:33:23.270Z,97503.20
2019-05-30T22:35:53.408Z,97497.81
2019-05-30T22:38:23.567Z,97494.05
2019-05-30T22:40:54.504Z,97497.48
2019-05-30T22:43:25.605Z,97497.33
2019-05-30T22:45:56.772Z,97495.70
2019-05-30T22:48:27.048Z,97497.69
2019-05-30T22:50:57.222Z,97496.53
2019-05-30T22:53:27.225Z,97496.05
2019-05-30T22:55:57.435Z,97494.42
2019-05-30T22:58:27.889Z,97490.50
2019-05-30T23:00:57.894Z,97492.44
2019-05-30T23:03:28.022Z,97496.39
2019-05-30T23:05:58.162Z,97498.84
2019-05-30T23:08:28.116Z,97489.69
2019-05-30T23:10:58.029Z,97490.17
2019-05-30T23:13:39.636Z,97489.88
2019-05-30T23:16:00.205Z,97486.77
2019-05-30T23:18:30.289Z,97484.50
2019-05-30T23:21:00.599Z,97485.81
2019-05-30T23:23:30.948Z,97479.95
2019-05-30T23:26:01.010Z,97480.60
2019-05-30T23:28:31.012Z,97474.73
2019-05-30T23:31:01.213Z,97476.69
2019-05-30T23:33:31.331Z,97483.04
2019-05-30T23:36:01.401Z,97478.16
2019-05-30T23:38:31.453Z,97477.52
2019-05-30T23:41:01.803Z,97472.63
2019-05-30T23:43:31.790Z,97475.57
2019-05-30T23:46:01.857Z,97476.36
2019-05-30T23:48:31.851Z,97475.91
2019-05-30T23:51:02.027Z,97469.59
2019-05-30T23:53:32.068Z,97474.33
2019-05-30T23:56:02.167Z,97466.17
2019-05-30T23:58:32.351Z,97469.94
